createdAt,value
2023-03-16T00:01:48.785Z,98997.88
2023-03-16T00:04:16.175Z,98998.31
2023-03-16T00:06:43.320Z,99001.94
2023-03-16T00:09:13.902Z,99002.78
2023-03-16T00:11:40.891Z,98992.09
2023-03-16T00:14:08.969Z,99009.25
2023-03-16T00:16:36.270Z,99000.63
2023-03-16T00:19:06.212Z,99003.53
2023-03-16T00:24:19.969Z,99009.91
2023-03-16T00:26:47.057Z,99007.13
2023-03-16T00:29:14.292Z,99010.69
2023-03-16T00:31:44.190Z,99020.16
2023-03-16T00:34:12.032Z,99016.50
2023-03-16T00:36:39.092Z,99019.25
2023-03-16T00:39:07.069Z,99022.91
2023-03-16T00:41:38.167Z,99021.16
2023-03-16T00:44:05.978Z,99017.63
2023-03-16T00:46:33.051Z,99016.94
2023-03-16T00:49:00.224Z,99021.56
2023-03-16T00:51:27.074Z,99015.50
2023-03-16T00:53:54.225Z,99021.81
2023-03-16T00:56:21.029Z,99018.25
2023-03-16T00:58:48.476Z,99024.69
2023-03-16T01:01:16.322Z,99025.41
2023-03-16T01:03:43.774Z,99029.13
2023-03-16T01:06:11.659Z,99034.06
2023-03-16T01:08:39.131Z,99029.66
2023-03-16T01:11:06.590Z,99036.81
2023-03-16T01:13:33.858Z,99033.28
2023-03-16T01:16:00.879Z,99033.50
2023-03-16T01:18:28.206Z,99037.19
2023-03-16T01:20:55.045Z,99033.50
2023-03-16T01:23:22.242Z,99031.13
2023-03-16T01:25:53.143Z,99032.94
2023-03-16T01:28:20.884Z,99032.16
2023-03-16T01:30:47.652Z,99028.53
2023-03-16T01:33:14.617Z,99028.75
2023-03-16T01:35:41.254Z,99030.56
2023-03-16T01:38:08.229Z,99033.09
2023-03-16T01:40:34.874Z,99031.59
2023-03-16T01:43:02.303Z,99036.88
2023-03-16T01:45:47.777Z,99037.03
2023-03-16T01:48:14.741Z,99037.09
2023-03-16T01:50:42.221Z,99038.19
2023-03-16T01:53:09.383Z,99039.06
2023-03-16T01:55:36.025Z,99041.88
2023-03-16T01:58:02.990Z,99039.28
2023-03-16T02:00:34.686Z,99040.22
2023-03-16T02:03:04.447Z,99044.78
2023-03-16T02:05:33.422Z,99047.72
2023-03-16T02:08:00.398Z,99045.88
2023-03-16T02:10:27.830Z,99053.00
2023-03-16T02:12:55.232Z,99057.63
2023-03-16T02:15:21.953Z,99055.03
2023-03-16T02:17:48.915Z,99055.16
2023-03-16T02:20:16.260Z,99052.66
2023-03-16T02:22:44.181Z,99067.75
2023-03-16T02:25:11.317Z,99066.00
2023-03-16T02:27:43.542Z,99067.16
2023-03-16T02:30:13.631Z,99065.66
2023-03-16T02:32:40.747Z,99079.53
2023-03-16T02:35:07.715Z,99083.13
2023-03-16T02:37:34.694Z,99084.22
2023-03-16T02:40:14.802Z,99087.94
2023-03-16T02:42:41.725Z,99088.16
2023-03-16T02:45:08.627Z,99094.66
2023-03-16T02:47:42.776Z,99085.94
2023-03-16T02:50:10.013Z,99091.06
2023-03-16T02:52:37.213Z,99097.13
2023-03-16T02:55:04.589Z,99104.41
2023-03-16T02:57:31.799Z,99105.53
2023-03-16T02:59:58.470Z,99110.09
2023-03-16T03:02:25.479Z,99106.56
2023-03-16T03:04:54.573Z,99114.56
2023-03-16T03:07:21.627Z,99110.09
2023-03-16T03:09:48.287Z,99118.09
2023-03-16T03:12:15.255Z,99119.97
2023-03-16T03:14:41.988Z,99121.28
2023-03-16T03:17:09.994Z,99121.03
2023-03-16T03:19:36.675Z,99121.28
2023-03-16T03:22:04.439Z,99127.59
2023-03-16T03:24:31.772Z,99129.19
2023-03-16T03:27:04.018Z,99133.78
2023-03-16T03:29:34.654Z,99138.22
2023-03-16T03:32:02.198Z,99141.97
2023-03-16T03:34:29.174Z,99138.44
2023-03-16T03:36:56.228Z,99135.91
2023-03-16T03:39:22.886Z,99141.25
2023-03-16T03:41:49.891Z,99143.06
2023-03-16T03:44:16.513Z,99136.06
2023-03-16T03:46:43.631Z,99141.47
2023-03-16T03:49:11.279Z,99152.09
2023-03-16T03:51:38.253Z,99142.41
2023-03-16T03:54:04.881Z,99151.19
2023-03-16T03:56:31.820Z,99155.81
2023-03-16T03:58:58.462Z,99152.28
2023-03-16T04:01:25.419Z,99159.75
2023-03-16T04:03:52.106Z,99158.81
2023-03-16T04:06:19.107Z,99161.69
2023-03-16T04:08:45.734Z,99156.16
2023-03-16T04:11:12.666Z,99165.88
2023-03-16T04:13:39.408Z,99167.81
2023-03-16T04:16:06.464Z,99168.72
2023-03-16T04:18:39.375Z,99171.69
2023-03-16T04:21:06.480Z,99173.41
2023-03-16T04:23:36.094Z,99177.09
2023-03-16T04:26:03.872Z,99177.09
2023-03-16T04:28:30.486Z,99183.28
2023-03-16T04:31:01.049Z,99181.53
2023-03-16T04:33:27.773Z,99177.03
2023-03-16T04:35:54.807Z,99179.81
2023-03-16T04:38:22.159Z,99178.06
2023-03-16T04:40:49.102Z,99181.81
2023-03-16T04:43:15.844Z,99186.19
2023-03-16T04:45:42.880Z,99194.34
2023-03-16T04:48:10.450Z,99191.81
2023-03-16T04:50:37.426Z,99186.47
2023-03-16T04:53:04.685Z,99192.00
2023-03-16T04:55:31.628Z,99191.03
2023-03-16T04:57:58.309Z,99199.09
2023-03-16T05:00:25.336Z,99204.41
2023-03-16T05:02:52.040Z,99206.13
2023-03-16T05:05:19.223Z,99213.28
2023-03-16T05:07:45.912Z,99204.53
2023-03-16T05:10:13.534Z,99211.75
2023-03-16T05:12:40.618Z,99212.66
2023-03-16T05:15:07.837Z,99212.66
2023-03-16T05:17:34.695Z,99214.59
2023-03-16T05:20:01.679Z,99219.91
2023-03-16T05:22:28.335Z,99223.50
2023-03-16T05:24:55.283Z,99224.38
2023-03-16T05:27:21.946Z,99223.69
2023-03-16T05:29:48.919Z,99228.78
2023-03-16T05:32:17.201Z,99238.69
2023-03-16T05:34:44.270Z,99235.03
2023-03-16T05:37:11.062Z,99241.25
2023-03-16T05:39:38.125Z,99243.84
2023-03-16T05:42:05.945Z,99242.16
2023-03-16T05:44:33.560Z,99239.50
2023-03-16T05:47:00.290Z,99241.25
2023-03-16T05:49:27.259Z,99246.53
2023-03-16T05:51:54.814Z,99245.56
2023-03-16T05:54:21.777Z,99251.91
2023-03-16T05:56:48.439Z,99255.38
2023-03-16T05:59:17.916Z,99276.66
2023-03-16T06:01:44.650Z,99269.50
2023-03-16T06:04:11.764Z,99267.78
2023-03-16T06:06:38.478Z,99266.78
2023-03-16T06:09:05.555Z,99266.78
2023-03-16T06:11:32.999Z,99281.78
2023-03-16T06:14:00.332Z,99274.47
2023-03-16T06:16:27.177Z,99286.84
2023-03-16T06:18:54.305Z,99280.53
2023-03-16T06:21:20.940Z,99285.03
2023-03-16T06:23:48.153Z,99277.81
2023-03-16T06:26:14.955Z,99294.66
2023-03-16T06:28:42.026Z,99294.50
2023-03-16T06:31:08.721Z,99289.84
2023-03-16T06:33:35.714Z,99291.38
2023-03-16T06:36:02.454Z,99301.84
2023-03-16T06:38:29.515Z,99302.78
2023-03-16T06:40:56.228Z,99306.16
2023-03-16T06:43:23.356Z,99304.28
2023-03-16T06:45:50.055Z,99309.44
2023-03-16T06:48:17.043Z,99312.00
2023-03-16T06:50:44.985Z,99311.88
2023-03-16T06:53:11.967Z,99313.53
2023-03-16T06:55:38.660Z,99321.31
2023-03-16T06:58:05.618Z,99317.47
2023-03-16T07:00:34.091Z,99318.34
2023-03-16T07:03:02.007Z,99320.09
2023-03-16T07:05:28.798Z,99320.16
2023-03-16T07:07:55.799Z,99321.91
2023-03-16T07:10:22.501Z,99326.34
2023-03-16T07:12:50.374Z,99323.41
2023-03-16T07:15:17.266Z,99324.16
2023-03-16T07:17:44.394Z,99329.16
2023-03-16T07:20:12.775Z,99332.56
2023-03-16T07:22:40.231Z,99334.16
2023-03-16T07:25:07.278Z,99337.56
2023-03-16T07:27:34.241Z,99341.84
2023-03-16T07:30:00.952Z,99341.72
2023-03-16T07:32:27.983Z,99336.97
2023-03-16T07:34:54.674Z,99336.75
2023-03-16T07:37:25.371Z,99337.56
2023-03-16T07:39:52.331Z,99341.69
2023-03-16T07:42:20.638Z,99336.88
2023-03-16T07:44:47.350Z,99342.88
2023-03-16T07:47:14.322Z,99344.53
2023-03-16T07:49:41.811Z,99347.00
2023-03-16T07:52:08.966Z,99348.50
2023-03-16T07:54:35.754Z,99350.19
2023-03-16T07:57:02.751Z,99350.84
2023-03-16T07:59:29.507Z,99340.59
2023-03-16T08:01:56.940Z,99344.78
2023-03-16T08:04:23.831Z,99343.72
2023-03-16T08:06:52.583Z,99351.28
2023-03-16T08:09:19.408Z,99345.53
2023-03-16T08:11:46.479Z,99344.41
2023-03-16T08:14:13.283Z,99345.72
2023-03-16T08:16:40.348Z,99353.59
2023-03-16T08:19:07.170Z,99351.34
2023-03-16T08:21:40.114Z,99354.53
2023-03-16T08:24:15.584Z,99351.56
2023-03-16T08:26:42.659Z,99351.16
2023-03-16T08:29:09.464Z,99355.34
2023-03-16T08:31:36.600Z,99356.06
2023-03-16T08:34:03.650Z,99357.34
2023-03-16T08:36:30.722Z,99358.75
2023-03-16T08:39:06.512Z,99364.81
2023-03-16T08:41:34.842Z,99365.13
2023-03-16T08:44:02.094Z,99366.47
2023-03-16T08:46:29.122Z,99368.97
2023-03-16T08:48:58.750Z,99368.03
2023-03-16T08:51:26.708Z,99368.38
2023-03-16T08:53:54.203Z,99370.53
2023-03-16T08:56:21.555Z,99376.44
2023-03-16T08:58:50.454Z,99380.50
2023-03-16T09:01:19.784Z,99381.91
2023-03-16T09:03:46.745Z,99384.34
2023-03-16T09:06:14.990Z,99387.66
2023-03-16T09:08:41.768Z,99392.69
2023-03-16T09:11:09.663Z,99387.78
2023-03-16T09:13:36.628Z,99391.00
2023-03-16T09:16:03.952Z,99384.34
2023-03-16T09:18:31.327Z,99392.16
2023-03-16T09:21:02.385Z,99394.59
2023-03-16T09:23:29.502Z,99382.66
2023-03-16T09:26:03.186Z,99386.63
2023-03-16T09:28:30.907Z,99389.69
2023-03-16T09:30:58.360Z,99386.66
2023-03-16T09:33:25.780Z,99386.31
2023-03-16T09:35:53.214Z,99396.00
2023-03-16T09:38:19.922Z,99397.47
2023-03-16T09:40:48.996Z,99392.78
2023-03-16T09:43:21.994Z,99388.91
2023-03-16T09:45:51.961Z,99383.00
2023-03-16T09:48:20.926Z,99388.88
2023-03-16T09:50:49.639Z,99388.03
2023-03-16T09:53:16.614Z,99396.00
2023-03-16T09:55:43.659Z,99391.13
2023-03-16T09:58:17.499Z,99397.97
2023-03-16T10:00:50.821Z,99393.00
2023-03-16T10:03:36.106Z,99391.88
2023-03-16T10:06:04.295Z,99397.72
2023-03-16T10:08:33.111Z,99394.66
2023-03-16T10:11:12.615Z,99388.81
2023-03-16T10:13:42.424Z,99397.38
2023-03-16T10:16:20.119Z,99388.97
2023-03-16T10:18:48.202Z,99394.72
2023-03-16T10:21:16.849Z,99398.13
2023-03-16T10:23:44.415Z,99397.63
2023-03-16T10:26:15.858Z,99390.13
2023-03-16T10:28:43.604Z,99392.00
2023-03-16T10:31:10.857Z,99389.41
2023-03-16T10:33:37.714Z,99394.69
2023-03-16T10:36:12.961Z,99394.59
2023-03-16T10:38:40.808Z,99402.47
2023-03-16T10:41:23.091Z,99402.38
2023-03-16T10:43:50.852Z,99402.69
2023-03-16T10:46:18.069Z,99407.38
2023-03-16T10:48:54.955Z,99409.97
2023-03-16T10:51:25.282Z,99406.09
2023-03-16T10:53:52.014Z,99405.72
2023-03-16T10:56:25.440Z,99401.81
2023-03-16T10:58:52.175Z,99404.06
2023-03-16T11:01:24.287Z,99406.38
2023-03-16T11:03:51.429Z,99399.63
2023-03-16T11:06:25.937Z,99395.47
2023-03-16T11:08:53.925Z,99393.25
2023-03-16T11:11:21.095Z,99387.03
2023-03-16T11:13:48.008Z,99388.75
2023-03-16T11:16:16.820Z,99397.81
2023-03-16T11:19:06.951Z,99398.00
2023-03-16T11:21:41.212Z,99406.06
2023-03-16T11:24:19.912Z,99401.44
2023-03-16T11:26:56.060Z,99402.78
2023-03-16T11:29:32.788Z,99391.13
2023-03-16T11:32:06.445Z,99393.16
2023-03-16T11:34:33.379Z,99399.13
2023-03-16T11:37:21.658Z,99384.88
2023-03-16T11:40:09.392Z,99399.91
2023-03-16T11:42:50.016Z,99389.63
2023-03-16T11:45:25.881Z,99393.50
2023-03-16T11:47:53.065Z,99389.22
2023-03-16T11:50:26.004Z,99386.88
2023-03-16T11:53:12.278Z,99384.06
2023-03-16T11:55:46.720Z,99382.34
2023-03-16T11:58:21.628Z,99387.84
2023-03-16T12:01:00.538Z,99386.00
2023-03-16T12:03:42.728Z,99387.09
2023-03-16T12:06:23.572Z,99384.94
2023-03-16T12:08:55.469Z,99386.75
2023-03-16T12:11:25.735Z,99380.25
2023-03-16T12:14:11.001Z,99382.94
2023-03-16T12:16:49.504Z,99374.66
2023-03-16T12:19:35.866Z,99376.31
2023-03-16T12:22:04.273Z,99370.84
2023-03-16T12:24:33.933Z,99364.00
2023-03-16T12:27:00.728Z,99367.44
2023-03-16T12:29:58.499Z,99361.75
2023-03-16T12:32:34.920Z,99364.00
2023-03-16T12:35:21.534Z,99367.75
2023-03-16T12:38:07.788Z,99363.41
2023-03-16T12:40:34.935Z,99372.28
2023-03-16T12:43:20.880Z,99360.63
2023-03-16T12:45:59.627Z,99359.97
2023-03-16T12:48:29.984Z,99360.00
2023-03-16T12:50:58.606Z,99360.75
2023-03-16T12:53:30.539Z,99356.91
2023-03-16T12:55:57.975Z,99353.22
2023-03-16T12:58:25.005Z,99364.66
2023-03-16T13:00:56.805Z,99365.75
2023-03-16T13:03:24.602Z,99360.91
2023-03-16T13:06:01.020Z,99357.78
2023-03-16T13:08:28.998Z,99366.63
2023-03-16T13:11:06.200Z,99362.94
2023-03-16T13:13:33.061Z,99362.00
2023-03-16T13:16:09.268Z,99365.34
2023-03-16T13:18:38.141Z,99371.72
2023-03-16T13:21:15.382Z,99372.47
2023-03-16T13:23:55.563Z,99369.66
2023-03-16T13:26:43.425Z,99365.56
2023-03-16T13:29:30.865Z,99367.84
2023-03-16T13:31:58.513Z,99363.22
2023-03-16T13:34:25.343Z,99359.66
2023-03-16T13:36:56.907Z,99363.22
2023-03-16T13:39:24.404Z,99362.22
2023-03-16T13:42:17.920Z,99362.13
2023-03-16T13:44:44.706Z,99355.00
2023-03-16T13:47:16.820Z,99363.00
2023-03-16T13:49:48.761Z,99365.59
2023-03-16T13:52:22.491Z,99367.41
2023-03-16T13:54:49.399Z,99366.56
2023-03-16T13:57:16.494Z,99372.81
2023-03-16T13:59:43.749Z,99362.00
2023-03-16T14:02:16.713Z,99364.72
2023-03-16T14:04:43.608Z,99361.16
2023-03-16T14:07:16.865Z,99370.09
2023-03-16T14:09:45.296Z,99367.50
2023-03-16T14:12:18.857Z,99363.97
2023-03-16T14:14:50.257Z,99361.25
2023-03-16T14:17:18.208Z,99364.06
2023-03-16T14:19:58.717Z,99360.63
2023-03-16T14:22:31.051Z,99359.75
2023-03-16T14:24:59.251Z,99361.56
2023-03-16T14:27:32.865Z,99356.28
2023-03-16T14:30:14.778Z,99343.88
2023-03-16T14:32:41.872Z,99349.38
2023-03-16T14:35:16.072Z,99344.09
2023-03-16T14:37:43.667Z,99349.50
2023-03-16T14:40:38.764Z,99350.59
2023-03-16T14:43:06.903Z,99347.00
2023-03-16T14:45:34.039Z,99347.88
2023-03-16T14:48:02.203Z,99343.56
2023-03-16T14:50:29.060Z,99344.63
2023-03-16T14:52:56.520Z,99343.00
2023-03-16T14:55:24.033Z,99348.41
2023-03-16T14:57:51.545Z,99350.34
2023-03-16T15:00:19.236Z,99355.09
2023-03-16T15:02:51.004Z,99351.63
2023-03-16T15:05:21.724Z,99350.75
2023-03-16T15:07:48.724Z,99355.19
2023-03-16T15:10:15.466Z,99356.25
2023-03-16T15:12:50.379Z,99346.56
2023-03-16T15:15:18.826Z,99353.78
2023-03-16T15:17:46.337Z,99359.25
2023-03-16T15:20:13.714Z,99357.66
2023-03-16T15:22:40.793Z,99347.94
2023-03-16T15:25:28.048Z,99351.50
2023-03-16T15:27:55.149Z,99357.00
2023-03-16T15:30:23.327Z,99355.28
2023-03-16T15:32:50.426Z,99353.53
2023-03-16T15:35:17.557Z,99347.38
2023-03-16T15:37:44.666Z,99354.53
2023-03-16T15:40:18.812Z,99353.75
2023-03-16T15:42:47.036Z,99355.69
2023-03-16T15:45:14.774Z,99358.38
2023-03-16T15:47:42.317Z,99351.28
2023-03-16T15:50:11.346Z,99352.22
2023-03-16T15:52:38.437Z,99358.59
2023-03-16T15:55:08.392Z,99354.16
2023-03-16T15:57:35.533Z,99361.41
2023-03-16T16:00:02.454Z,99361.59
2023-03-16T16:02:30.377Z,99367.00
2023-03-16T16:04:57.389Z,99360.84
2023-03-16T16:07:24.553Z,99362.84
2023-03-16T16:09:51.924Z,99366.53
2023-03-16T16:12:19.230Z,99369.34
2023-03-16T16:14:46.315Z,99366.66
2023-03-16T16:17:36.532Z,99372.22
2023-03-16T16:20:09.658Z,99375.97
2023-03-16T16:22:38.982Z,99371.78
2023-03-16T16:25:05.746Z,99381.91
2023-03-16T16:27:32.777Z,99375.75
2023-03-16T16:29:59.514Z,99383.19
2023-03-16T16:32:26.787Z,99382.28
2023-03-16T16:35:03.853Z,99390.47
2023-03-16T16:37:31.702Z,99379.03
2023-03-16T16:39:58.442Z,99382.72
2023-03-16T16:42:25.590Z,99375.75
2023-03-16T16:44:52.338Z,99383.19
2023-03-16T16:47:20.066Z,99384.78
2023-03-16T16:49:46.750Z,99383.19
2023-03-16T16:52:15.299Z,99382.41
2023-03-16T16:54:42.008Z,99385.97
2023-03-16T16:57:15.105Z,99395.22
2023-03-16T16:59:44.124Z,99391.75
2023-03-16T17:02:38.799Z,99390.97
2023-03-16T17:05:06.651Z,99395.63
2023-03-16T17:07:33.639Z,99390.41
2023-03-16T17:10:00.405Z,99395.91
2023-03-16T17:12:29.593Z,99396.97
2023-03-16T17:14:56.464Z,99398.97
2023-03-16T17:17:23.450Z,99404.69
2023-03-16T17:19:50.240Z,99398.81
2023-03-16T17:22:19.834Z,99400.63
2023-03-16T17:24:46.601Z,99396.41
2023-03-16T17:27:14.355Z,99405.75
2023-03-16T17:29:42.738Z,99403.25
2023-03-16T17:32:16.813Z,99408.16
2023-03-16T17:34:43.626Z,99412.66
2023-03-16T17:37:14.106Z,99407.59
2023-03-16T17:39:41.616Z,99414.09
2023-03-16T17:42:18.681Z,99408.03
2023-03-16T17:44:46.363Z,99409.22
2023-03-16T17:47:18.248Z,99409.50
2023-03-16T17:49:48.724Z,99404.19
2023-03-16T17:52:18.260Z,99409.38
2023-03-16T17:54:47.856Z,99407.84
2023-03-16T17:57:31.102Z,99414.06
2023-03-16T17:59:58.330Z,99416.94
2023-03-16T18:02:28.366Z,99419.22
2023-03-16T18:04:55.121Z,99416.44
2023-03-16T18:07:22.516Z,99420.47
2023-03-16T18:09:49.344Z,99421.44
2023-03-16T18:12:16.648Z,99421.50
2023-03-16T18:14:43.798Z,99432.56
2023-03-16T18:17:16.876Z,99425.72
2023-03-16T18:19:43.973Z,99425.13
2023-03-16T18:22:20.565Z,99431.56
2023-03-16T18:24:48.680Z,99427.41
2023-03-16T18:27:15.973Z,99432.00
2023-03-16T18:29:42.845Z,99426.91
2023-03-16T18:32:19.065Z,99433.59
2023-03-16T18:34:46.736Z,99432.19
2023-03-16T18:37:16.806Z,99438.50
2023-03-16T18:39:43.517Z,99444.81
2023-03-16T18:42:18.090Z,99447.72
2023-03-16T18:44:44.805Z,99437.22
2023-03-16T18:47:14.871Z,99443.72
2023-03-16T18:49:41.648Z,99441.41
2023-03-16T18:52:22.185Z,99443.50
2023-03-16T18:54:48.933Z,99441.06
2023-03-16T18:57:16.748Z,99435.00
2023-03-16T18:59:43.471Z,99442.16
2023-03-16T19:02:16.990Z,99443.38
2023-03-16T19:04:43.932Z,99440.19
2023-03-16T19:07:13.218Z,99438.63
2023-03-16T19:09:39.905Z,99437.50
2023-03-16T19:12:09.198Z,99434.97
2023-03-16T19:14:36.870Z,99438.69
2023-03-16T19:17:04.112Z,99434.38
2023-03-16T19:19:31.049Z,99437.47
2023-03-16T19:22:05.990Z,99444.91
2023-03-16T19:24:37.426Z,99450.19
2023-03-16T19:27:06.350Z,99457.47
2023-03-16T19:29:33.508Z,99448.72
2023-03-16T19:32:01.021Z,99458.19
2023-03-16T19:34:27.868Z,99455.59
2023-03-16T19:36:54.962Z,99452.94
2023-03-16T19:39:22.068Z,99461.13
2023-03-16T19:41:56.504Z,99464.13
2023-03-16T19:44:25.324Z,99464.13
2023-03-16T19:46:52.701Z,99463.59
2023-03-16T19:49:21.206Z,99466.50
2023-03-16T19:51:51.170Z,99470.16
2023-03-16T19:54:24.185Z,99480.25
2023-03-16T19:56:51.729Z,99471.31
2023-03-16T19:59:18.937Z,99474.66
2023-03-16T20:01:47.536Z,99475.34
2023-03-16T20:04:15.150Z,99476.78
2023-03-16T20:06:42.442Z,99473.31
2023-03-16T20:09:09.248Z,99472.28
2023-03-16T20:11:36.525Z,99465.34
2023-03-16T20:14:03.758Z,99469.47
2023-03-16T20:16:34.363Z,99463.22
2023-03-16T20:19:01.795Z,99472.84
2023-03-16T20:21:29.498Z,99465.19
2023-03-16T20:23:56.399Z,99457.84
2023-03-16T20:26:24.508Z,99461.31
2023-03-16T20:28:51.301Z,99455.03
2023-03-16T20:31:19.655Z,99458.94
2023-03-16T20:33:46.530Z,99459.22
2023-03-16T20:36:13.635Z,99459.31
2023-03-16T20:38:40.987Z,99460.22
2023-03-16T20:41:27.712Z,99455.84
2023-03-16T20:43:54.928Z,99463.25
2023-03-16T20:46:26.122Z,99460.91
2023-03-16T20:48:53.468Z,99463.25
2023-03-16T20:51:21.694Z,99456.56
2023-03-16T20:53:49.052Z,99461.16
2023-03-16T20:56:16.638Z,99465.28
2023-03-16T20:58:45.066Z,99458.69
2023-03-16T21:01:17.664Z,99460.56
2023-03-16T21:03:45.496Z,99467.25
2023-03-16T21:06:22.283Z,99467.97
2023-03-16T21:08:52.312Z,99461.41
2023-03-16T21:11:23.869Z,99465.81
2023-03-16T21:13:50.928Z,99467.59
2023-03-16T21:16:18.277Z,99465.97
2023-03-16T21:18:45.134Z,99473.13
2023-03-16T21:21:13.188Z,99474.41
2023-03-16T21:23:39.836Z,99477.91
2023-03-16T21:26:06.937Z,99471.91
2023-03-16T21:28:34.609Z,99475.44
2023-03-16T21:31:03.072Z,99473.50
2023-03-16T21:33:31.238Z,99474.16
2023-03-16T21:35:58.990Z,99474.22
2023-03-16T21:38:26.194Z,99469.13
2023-03-16T21:40:53.330Z,99463.00
2023-03-16T21:43:20.248Z,99472.97
2023-03-16T21:45:47.478Z,99464.25
2023-03-16T21:48:15.686Z,99464.44
2023-03-16T21:50:42.896Z,99467.13
2023-03-16T21:53:15.645Z,99463.91
2023-03-16T21:55:42.670Z,99464.19
2023-03-16T21:58:09.427Z,99459.56
2023-03-16T22:00:36.442Z,99451.53
2023-03-16T22:03:04.321Z,99446.25
2023-03-16T22:05:33.062Z,99444.81
2023-03-16T22:08:00.623Z,99442.13
2023-03-16T22:10:28.463Z,99446.69
2023-03-16T22:12:55.609Z,99442.72
2023-03-16T22:15:25.159Z,99453.41
2023-03-16T22:17:52.511Z,99449.63
2023-03-16T22:20:20.875Z,99447.03
2023-03-16T22:22:47.615Z,99447.25
2023-03-16T22:25:15.887Z,99437.63
2023-03-16T22:27:42.565Z,99442.84
2023-03-16T22:30:17.596Z,99441.09
2023-03-16T22:32:45.327Z,99429.97
2023-03-16T22:35:38.809Z,99425.47
2023-03-16T22:38:06.044Z,99426.72
2023-03-16T22:40:37.263Z,99422.28
2023-03-16T22:43:04.665Z,99426.53
2023-03-16T22:45:32.833Z,99421.13
2023-03-16T22:48:02.223Z,99420.41
2023-03-16T22:50:30.281Z,99421.44
2023-03-16T22:52:57.959Z,99418.09
2023-03-16T22:55:27.020Z,99412.75
2023-03-16T22:58:14.670Z,99411.91
2023-03-16T23:00:41.751Z,99412.94
2023-03-16T23:03:15.738Z,99413.81
2023-03-16T23:05:42.833Z,99417.50
2023-03-16T23:08:13.798Z,99416.66
2023-03-16T23:10:40.812Z,99409.69
2023-03-16T23:13:17.915Z,99410.00
2023-03-16T23:15:45.786Z,99407.31
2023-03-16T23:18:30.456Z,99414.56
2023-03-16T23:20:57.459Z,99415.53
2023-03-16T23:23:24.110Z,99419.16
2023-03-16T23:25:51.094Z,99419.03
2023-03-16T23:28:20.903Z,99426.16
2023-03-16T23:30:47.895Z,99438.00
2023-03-16T23:33:14.677Z,99440.72
2023-03-16T23:35:43.095Z,99431.19
2023-03-16T23:38:09.826Z,99437.38
2023-03-16T23:40:37.040Z,99423.03
2023-03-16T23:43:03.893Z,99414.22
2023-03-16T23:45:49.033Z,99416.09
2023-03-16T23:48:17.092Z,99418.94
2023-03-16T23:50:44.281Z,99426.28
2023-03-16T23:53:14.849Z,99428.16
2023-03-16T23:55:41.900Z,99441.44
2023-03-16T23:58:09.254Z,99446.00
